sensor_id;sensor_type;location;lat;lon;timestamp;P1;durP1;ratioP1;P2;durP2;ratioP2
27145;SDS011;17980;51.744;7.190;2023-02-19T00:02:24;25.17;;;20.83;;
27145;SDS011;17980;51.744;7.190;2023-02-19T00:04:51;26.13;;;22.80;;
27145;SDS011;17980;51.744;7.190;2023-02-19T00:07:34;29.73;;;22.23;;
27145;SDS011;17980;51.744;7.190;2023-02-19T00:10:01;29.37;;;23.23;;
27145;SDS011;17980;51.744;7.190;2023-02-19T00:12:28;32.70;;;24.53;;
27145;SDS011;17980;51.744;7.190;2023-02-19T00:14:55;34.17;;;26.40;;
27145;SDS011;17980;51.744;7.190;2023-02-19T00:17:32;31.43;;;23.03;;
27145;SDS011;17980;51.744;7.190;2023-02-19T00:19:59;28.27;;;22.90;;
27145;SDS011;17980;51.744;7.190;2023-02-19T00:22:27;33.40;;;23.97;;
27145;SDS011;17980;51.744;7.190;2023-02-19T00:24:54;32.63;;;23.60;;
27145;SDS011;17980;51.744;7.190;2023-02-19T00:27:31;34.77;;;24.10;;
27145;SDS011;17980;51.744;7.190;2023-02-19T00:29:59;28.37;;;22.30;;
27145;SDS011;17980;51.744;7.190;2023-02-19T00:32:26;30.63;;;23.37;;
27145;SDS011;17980;51.744;7.190;2023-02-19T00:34:53;30.70;;;23.93;;
27145;SDS011;17980;51.744;7.190;2023-02-19T00:37:30;34.60;;;22.70;;
27145;SDS011;17980;51.744;7.190;2023-02-19T00:39:57;29.33;;;22.60;;
27145;SDS011;17980;51.744;7.190;2023-02-19T00:42:24;29.33;;;23.03;;
27145;SDS011;17980;51.744;7.190;2023-02-19T00:44:52;28.07;;;23.80;;
27145;SDS011;17980;51.744;7.190;2023-02-19T00:47:28;30.23;;;23.10;;
27145;SDS011;17980;51.744;7.190;2023-02-19T00:49:56;31.90;;;25.47;;
27145;SDS011;17980;51.744;7.190;2023-02-19T00:52:23;32.20;;;23.47;;
27145;SDS011;17980;51.744;7.190;2023-02-19T00:54:50;33.57;;;23.57;;
27145;SDS011;17980;51.744;7.190;2023-02-19T00:57:27;32.37;;;23.47;;
27145;SDS011;17980;51.744;7.190;2023-02-19T00:59:54;32.13;;;23.87;;
27145;SDS011;17980;51.744;7.190;2023-02-19T01:02:21;31.30;;;22.37;;
27145;SDS011;17980;51.744;7.190;2023-02-19T01:04:48;29.67;;;23.87;;
27145;SDS011;17980;51.744;7.190;2023-02-19T01:07:25;30.23;;;23.33;;
27145;SDS011;17980;51.744;7.190;2023-02-19T01:09:53;27.37;;;20.57;;
27145;SDS011;17980;51.744;7.190;2023-02-19T01:12:20;27.87;;;22.47;;
27145;SDS011;17980;51.744;7.190;2023-02-19T01:14:57;32.27;;;25.33;;
27145;SDS011;17980;51.744;7.190;2023-02-19T01:17:24;33.37;;;24.77;;
27145;SDS011;17980;51.744;7.190;2023-02-19T01:20:01;32.80;;;24.37;;
27145;SDS011;17980;51.744;7.190;2023-02-19T01:22:28;29.13;;;21.97;;
27145;SDS011;17980;51.744;7.190;2023-02-19T01:24:55;31.27;;;24.13;;
27145;SDS011;17980;51.744;7.190;2023-02-19T01:27:32;26.87;;;20.63;;
27145;SDS011;17980;51.744;7.190;2023-02-19T01:29:59;33.37;;;22.80;;
27145;SDS011;17980;51.744;7.190;2023-02-19T01:32:26;29.10;;;21.13;;
27145;SDS011;17980;51.744;7.190;2023-02-19T01:34:54;33.03;;;23.07;;
27145;SDS011;17980;51.744;7.190;2023-02-19T01:37:31;29.03;;;21.33;;
27145;SDS011;17980;51.744;7.190;2023-02-19T01:39:58;33.10;;;23.80;;
27145;SDS011;17980;51.744;7.190;2023-02-19T01:42:25;35.83;;;22.73;;
27145;SDS011;17980;51.744;7.190;2023-02-19T01:48:05;31.27;;;21.10;;
27145;SDS011;17980;51.744;7.190;2023-02-19T01:50:36;30.43;;;20.53;;
27145;SDS011;17980;51.744;7.190;2023-02-19T01:53:07;26.73;;;17.53;;
27145;SDS011;17980;51.744;7.190;2023-02-19T01:55:36;26.77;;;18.53;;
27145;SDS011;17980;51.744;7.190;2023-02-19T01:58:14;26.47;;;17.17;;
27145;SDS011;17980;51.744;7.190;2023-02-19T02:00:42;24.77;;;16.83;;
27145;SDS011;17980;51.744;7.190;2023-02-19T02:03:19;27.67;;;18.37;;
27145;SDS011;17980;51.744;7.190;2023-02-19T02:05:49;29.10;;;18.70;;
27145;SDS011;17980;51.744;7.190;2023-02-19T02:08:20;25.67;;;17.80;;
27145;SDS011;17980;51.744;7.190;2023-02-19T02:10:57;25.03;;;17.20;;
27145;SDS011;17980;51.744;7.190;2023-02-19T02:13:24;24.90;;;16.60;;
27145;SDS011;17980;51.744;7.190;2023-02-19T02:16:07;26.47;;;17.03;;
27145;SDS011;17980;51.744;7.190;2023-02-19T02:18:44;22.47;;;16.63;;
27145;SDS011;17980;51.744;7.190;2023-02-19T02:21:24;26.70;;;16.13;;
27145;SDS011;17980;51.744;7.190;2023-02-19T02:24:16;19.63;;;15.70;;
27145;SDS011;17980;51.744;7.190;2023-02-19T02:29:56;22.07;;;15.17;;
27145;SDS011;17980;51.744;7.190;2023-02-19T02:32:48;17.30;;;13.70;;
27145;SDS011;17980;51.744;7.190;2023-02-19T02:35:26;21.60;;;14.10;;
27145;SDS011;17980;51.744;7.190;2023-02-19T02:37:58;19.47;;;14.43;;
27145;SDS011;17980;51.744;7.190;2023-02-19T02:40:28;23.87;;;14.30;;
27145;SDS011;17980;51.744;7.190;2023-02-19T02:43:05;14.17;;;11.07;;
27145;SDS011;17980;51.744;7.190;2023-02-19T02:45:32;16.43;;;10.93;;
27145;SDS011;17980;51.744;7.190;2023-02-19T02:48:11;16.97;;;11.77;;
27145;SDS011;17980;51.744;7.190;2023-02-19T02:50:43;16.70;;;11.10;;
27145;SDS011;17980;51.744;7.190;2023-02-19T02:53:15;17.37;;;11.73;;
27145;SDS011;17980;51.744;7.190;2023-02-19T02:55:53;19.33;;;12.63;;
27145;SDS011;17980;51.744;7.190;2023-02-19T02:58:21;19.40;;;12.97;;
27145;SDS011;17980;51.744;7.190;2023-02-19T03:00:50;16.13;;;13.30;;
27145;SDS011;17980;51.744;7.190;2023-02-19T03:03:39;21.30;;;15.30;;
27145;SDS011;17980;51.744;7.190;2023-02-19T03:06:17;25.33;;;15.93;;
27145;SDS011;17980;51.744;7.190;2023-02-19T03:08:47;28.70;;;17.00;;
27145;SDS011;17980;51.744;7.190;2023-02-19T03:11:26;26.40;;;16.67;;
27145;SDS011;17980;51.744;7.190;2023-02-19T03:14:14;31.30;;;18.13;;
27145;SDS011;17980;51.744;7.190;2023-02-19T03:16:53;36.57;;;19.73;;
27145;SDS011;17980;51.744;7.190;2023-02-19T03:19:42;31.60;;;19.27;;
27145;SDS011;17980;51.744;7.190;2023-02-19T03:22:20;38.17;;;20.40;;
27145;SDS011;17980;51.744;7.190;2023-02-19T03:24:50;34.47;;;19.73;;
27145;SDS011;17980;51.744;7.190;2023-02-19T03:27:28;33.03;;;19.30;;
27145;SDS011;17980;51.744;7.190;2023-02-19T03:29:57;28.57;;;20.27;;
27145;SDS011;17980;51.744;7.190;2023-02-19T03:32:29;31.03;;;19.53;;
27145;SDS011;17980;51.744;7.190;2023-02-19T03:35:00;33.80;;;19.20;;
27145;SDS011;17980;51.744;7.190;2023-02-19T03:37:40;27.80;;;18.67;;
27145;SDS011;17980;51.744;7.190;2023-02-19T03:40:09;27.37;;;17.30;;
27145;SDS011;17980;51.744;7.190;2023-02-19T03:42:39;34.03;;;18.10;;
27145;SDS011;17980;51.744;7.190;2023-02-19T03:45:17;31.23;;;18.03;;
27145;SDS011;17980;51.744;7.190;2023-02-19T03:47:46;31.90;;;19.17;;
27145;SDS011;17980;51.744;7.190;2023-02-19T03:50:23;28.07;;;18.23;;
27145;SDS011;17980;51.744;7.190;2023-02-19T03:52:57;33.37;;;18.70;;
27145;SDS011;17980;51.744;7.190;2023-02-19T03:55:28;28.23;;;16.83;;
27145;SDS011;17980;51.744;7.190;2023-02-19T03:58:06;29.60;;;15.90;;
27145;SDS011;17980;51.744;7.190;2023-02-19T04:00:37;27.07;;;17.43;;
27145;SDS011;17980;51.744;7.190;2023-02-19T04:03:07;26.23;;;16.60;;
27145;SDS011;17980;51.744;7.190;2023-02-19T04:05:47;25.73;;;13.03;;
27145;SDS011;17980;51.744;7.190;2023-02-19T04:08:18;25.13;;;16.17;;
27145;SDS011;17980;51.744;7.190;2023-02-19T04:10:55;24.33;;;15.67;;
27145;SDS011;17980;51.744;7.190;2023-02-19T04:13:25;26.90;;;16.97;;
27145;SDS011;17980;51.744;7.190;2023-02-19T04:15:56;20.63;;;15.23;;
27145;SDS011;17980;51.744;7.190;2023-02-19T04:18:35;22.87;;;16.47;;
27145;SDS011;17980;51.744;7.190;2023-02-19T04:21:05;24.37;;;15.40;;
27145;SDS011;17980;51.744;7.190;2023-02-19T04:23:43;28.70;;;16.83;;
27145;SDS011;17980;51.744;7.190;2023-02-19T04:26:12;28.70;;;15.77;;
27145;SDS011;17980;51.744;7.190;2023-02-19T04:28:49;23.30;;;15.90;;
27145;SDS011;17980;51.744;7.190;2023-02-19T04:31:17;18.67;;;13.10;;
27145;SDS011;17980;51.744;7.190;2023-02-19T04:33:44;23.70;;;12.43;;
27145;SDS011;17980;51.744;7.190;2023-02-19T04:36:21;24.60;;;15.07;;
27145;SDS011;17980;51.744;7.190;2023-02-19T04:38:48;25.37;;;13.70;;
27145;SDS011;17980;51.744;7.190;2023-02-19T04:41:15;25.83;;;14.43;;
27145;SDS011;17980;51.744;7.190;2023-02-19T04:43:42;20.97;;;13.97;;
27145;SDS011;17980;51.744;7.190;2023-02-19T04:46:19;20.93;;;13.77;;
27145;SDS011;17980;51.744;7.190;2023-02-19T04:48:46;24.37;;;14.30;;
27145;SDS011;17980;51.744;7.190;2023-02-19T04:51:14;20.30;;;13.47;;
27145;SDS011;17980;51.744;7.190;2023-02-19T04:53:41;24.47;;;14.40;;
27145;SDS011;17980;51.744;7.190;2023-02-19T04:56:24;19.77;;;12.30;;
27145;SDS011;17980;51.744;7.190;2023-02-19T04:58:51;19.17;;;13.50;;
27145;SDS011;17980;51.744;7.190;2023-02-19T05:01:34;23.10;;;12.93;;
27145;SDS011;17980;51.744;7.190;2023-02-19T05:04:01;23.23;;;12.63;;
27145;SDS011;17980;51.744;7.190;2023-02-19T05:06:40;23.33;;;13.00;;
27145;SDS011;17980;51.744;7.190;2023-02-19T05:09:08;23.40;;;13.80;;
27145;SDS011;17980;51.744;7.190;2023-02-19T05:11:35;18.93;;;12.20;;
27145;SDS011;17980;51.744;7.190;2023-02-19T05:14:02;18.93;;;12.47;;
27145;SDS011;17980;51.744;7.190;2023-02-19T05:16:39;22.10;;;16.70;;
27145;SDS011;17980;51.744;7.190;2023-02-19T05:19:08;25.40;;;15.43;;
27145;SDS011;17980;51.744;7.190;2023-02-19T05:21:36;22.13;;;14.00;;
27145;SDS011;17980;51.744;7.190;2023-02-19T05:24:13;22.93;;;12.43;;
27145;SDS011;17980;51.744;7.190;2023-02-19T05:26:40;24.57;;;13.43;;
27145;SDS011;17980;51.744;7.190;2023-02-19T05:29:17;24.13;;;14.53;;
27145;SDS011;17980;51.744;7.190;2023-02-19T05:31:44;23.20;;;13.93;;
27145;SDS011;17980;51.744;7.190;2023-02-19T05:34:11;22.93;;;15.17;;
27145;SDS011;17980;51.744;7.190;2023-02-19T05:36:48;27.83;;;15.40;;
27145;SDS011;17980;51.744;7.190;2023-02-19T05:39:15;25.40;;;14.87;;
27145;SDS011;17980;51.744;7.190;2023-02-19T05:41:43;25.50;;;14.70;;
27145;SDS011;17980;51.744;7.190;2023-02-19T05:44:10;18.77;;;12.67;;
27145;SDS011;17980;51.744;7.190;2023-02-19T05:46:47;14.47;;;10.87;;
27145;SDS011;17980;51.744;7.190;2023-02-19T05:49:14;15.93;;;11.43;;
27145;SDS011;17980;51.744;7.190;2023-02-19T05:51:41;14.83;;;11.50;;
27145;SDS011;17980;51.744;7.190;2023-02-19T05:54:09;21.70;;;11.97;;
27145;SDS011;17980;51.744;7.190;2023-02-19T05:56:45;19.93;;;13.60;;
27145;SDS011;17980;51.744;7.190;2023-02-19T05:59:14;26.83;;;15.23;;
27145;SDS011;17980;51.744;7.190;2023-02-19T06:01:51;15.67;;;12.10;;
27145;SDS011;17980;51.744;7.190;2023-02-19T06:04:19;21.87;;;12.27;;
27145;SDS011;17980;51.744;7.190;2023-02-19T06:06:57;20.60;;;13.77;;
27145;SDS011;17980;51.744;7.190;2023-02-19T06:09:24;19.47;;;13.70;;
27145;SDS011;17980;51.744;7.190;2023-02-19T06:11:51;18.20;;;11.90;;
27145;SDS011;17980;51.744;7.190;2023-02-19T06:14:18;35.87;;;24.57;;
27145;SDS011;17980;51.744;7.190;2023-02-19T06:16:55;18.67;;;14.50;;
27145;SDS011;17980;51.744;7.190;2023-02-19T06:19:22;15.57;;;10.97;;
27145;SDS011;17980;51.744;7.190;2023-02-19T06:21:50;15.87;;;13.30;;
27145;SDS011;17980;51.744;7.190;2023-02-19T06:24:17;17.10;;;11.57;;
27145;SDS011;17980;51.744;7.190;2023-02-19T06:26:54;15.53;;;12.97;;
27145;SDS011;17980;51.744;7.190;2023-02-19T06:29:21;23.67;;;18.13;;
27145;SDS011;17980;51.744;7.190;2023-02-19T06:31:48;31.13;;;23.00;;
27145;SDS011;17980;51.744;7.190;2023-02-19T06:34:15;29.73;;;24.73;;
27145;SDS011;17980;51.744;7.190;2023-02-19T06:36:52;19.33;;;16.20;;
27145;SDS011;17980;51.744;7.190;2023-02-19T06:39:20;18.60;;;15.50;;
27145;SDS011;17980;51.744;7.190;2023-02-19T06:41:47;23.43;;;20.90;;
27145;SDS011;17980;51.744;7.190;2023-02-19T06:44:15;19.23;;;14.27;;
27145;SDS011;17980;51.744;7.190;2023-02-19T06:46:53;14.93;;;13.43;;
27145;SDS011;17980;51.744;7.190;2023-02-19T06:49:21;18.53;;;13.30;;
27145;SDS011;17980;51.744;7.190;2023-02-19T06:51:48;14.47;;;10.97;;
27145;SDS011;17980;51.744;7.190;2023-02-19T06:54:15;23.50;;;17.47;;
27145;SDS011;17980;51.744;7.190;2023-02-19T06:56:52;19.90;;;13.73;;
27145;SDS011;17980;51.744;7.190;2023-02-19T06:59:21;29.10;;;18.60;;
27145;SDS011;17980;51.744;7.190;2023-02-19T07:01:48;20.00;;;15.93;;
27145;SDS011;17980;51.744;7.190;2023-02-19T07:04:16;37.70;;;26.77;;
27145;SDS011;17980;51.744;7.190;2023-02-19T07:06:53;14.23;;;10.93;;
27145;SDS011;17980;51.744;7.190;2023-02-19T07:09:20;13.03;;;11.67;;
27145;SDS011;17980;51.744;7.190;2023-02-19T07:11:49;30.73;;;24.03;;
27145;SDS011;17980;51.744;7.190;2023-02-19T07:14:17;14.03;;;11.97;;
27145;SDS011;17980;51.744;7.190;2023-02-19T07:16:53;18.33;;;14.93;;
27145;SDS011;17980;51.744;7.190;2023-02-19T07:19:21;18.43;;;16.43;;
27145;SDS011;17980;51.744;7.190;2023-02-19T07:21:57;13.60;;;10.47;;
27145;SDS011;17980;51.744;7.190;2023-02-19T07:24:25;16.63;;;13.83;;
27145;SDS011;17980;51.744;7.190;2023-02-19T07:27:02;16.60;;;11.27;;
27145;SDS011;17980;51.744;7.190;2023-02-19T07:29:29;16.80;;;10.30;;
27145;SDS011;17980;51.744;7.190;2023-02-19T07:31:56;17.60;;;14.73;;
27145;SDS011;17980;51.744;7.190;2023-02-19T07:34:23;15.33;;;11.97;;
27145;SDS011;17980;51.744;7.190;2023-02-19T07:37:00;12.40;;;9.97;;
27145;SDS011;17980;51.744;7.190;2023-02-19T07:39:27;10.40;;;8.33;;
27145;SDS011;17980;51.744;7.190;2023-02-19T07:41:55;11.10;;;8.70;;
27145;SDS011;17980;51.744;7.190;2023-02-19T07:44:23;9.13;;;8.07;;
27145;SDS011;17980;51.744;7.190;2023-02-19T07:47:00;7.60;;;6.90;;
27145;SDS011;17980;51.744;7.190;2023-02-19T07:49:27;8.67;;;6.57;;
27145;SDS011;17980;51.744;7.190;2023-02-19T07:51:54;8.70;;;6.73;;
27145;SDS011;17980;51.744;7.190;2023-02-19T07:54:22;8.70;;;6.97;;
27145;SDS011;17980;51.744;7.190;2023-02-19T07:56:59;8.70;;;6.50;;
27145;SDS011;17980;51.744;7.190;2023-02-19T07:59:26;10.33;;;6.63;;
27145;SDS011;17980;51.744;7.190;2023-02-19T08:01:53;11.17;;;7.30;;
27145;SDS011;17980;51.744;7.190;2023-02-19T08:04:39;10.17;;;7.23;;
27145;SDS011;17980;51.744;7.190;2023-02-19T08:07:16;10.77;;;6.67;;
27145;SDS011;17980;51.744;7.190;2023-02-19T08:09:43;10.03;;;6.70;;
27145;SDS011;17980;51.744;7.190;2023-02-19T08:12:12;8.63;;;6.37;;
27145;SDS011;17980;51.744;7.190;2023-02-19T08:15:11;8.77;;;6.77;;
27145;SDS011;17980;51.744;7.190;2023-02-19T08:17:48;9.60;;;6.77;;
27145;SDS011;17980;51.744;7.190;2023-02-19T08:20:15;9.03;;;7.00;;
27145;SDS011;17980;51.744;7.190;2023-02-19T08:22:53;10.83;;;7.80;;
27145;SDS011;17980;51.744;7.190;2023-02-19T08:25:20;7.03;;;5.97;;
27145;SDS011;17980;51.744;7.190;2023-02-19T08:27:57;8.97;;;5.80;;
27145;SDS011;17980;51.744;7.190;2023-02-19T08:30:25;7.93;;;5.30;;
27145;SDS011;17980;51.744;7.190;2023-02-19T08:32:53;10.30;;;5.67;;
27145;SDS011;17980;51.744;7.190;2023-02-19T08:35:21;7.57;;;4.73;;
27145;SDS011;17980;51.744;7.190;2023-02-19T08:37:58;5.80;;;5.20;;
27145;SDS011;17980;51.744;7.190;2023-02-19T08:43:02;6.83;;;4.67;;
27145;SDS011;17980;51.744;7.190;2023-02-19T08:45:30;7.27;;;5.93;;
27145;SDS011;17980;51.744;7.190;2023-02-19T08:48:07;7.67;;;4.53;;
27145;SDS011;17980;51.744;7.190;2023-02-19T08:50:34;5.90;;;4.03;;
27145;SDS011;17980;51.744;7.190;2023-02-19T08:53:11;6.80;;;5.03;;
27145;SDS011;17980;51.744;7.190;2023-02-19T08:55:38;8.03;;;5.50;;
27145;SDS011;17980;51.744;7.190;2023-02-19T08:58:15;8.67;;;4.90;;
27145;SDS011;17980;51.744;7.190;2023-02-19T09:00:42;8.77;;;4.57;;
27145;SDS011;17980;51.744;7.190;2023-02-19T09:03:20;7.47;;;5.27;;
27145;SDS011;17980;51.744;7.190;2023-02-19T09:05:48;7.37;;;4.90;;
27145;SDS011;17980;51.744;7.190;2023-02-19T09:08:27;6.57;;;4.47;;
27145;SDS011;17980;51.744;7.190;2023-02-19T09:10:57;7.40;;;4.57;;
27145;SDS011;17980;51.744;7.190;2023-02-19T09:13:35;8.23;;;4.83;;
27145;SDS011;17980;51.744;7.190;2023-02-19T09:16:03;7.03;;;4.23;;
27145;SDS011;17980;51.744;7.190;2023-02-19T09:18:40;8.60;;;5.53;;
27145;SDS011;17980;51.744;7.190;2023-02-19T09:21:07;7.60;;;5.73;;
27145;SDS011;17980;51.744;7.190;2023-02-19T09:23:35;6.40;;;5.27;;
27145;SDS011;17980;51.744;7.190;2023-02-19T09:26:02;7.47;;;5.03;;
27145;SDS011;17980;51.744;7.190;2023-02-19T09:28:39;9.63;;;5.40;;
27145;SDS011;17980;51.744;7.190;2023-02-19T09:31:08;10.27;;;6.70;;
27145;SDS011;17980;51.744;7.190;2023-02-19T09:33:37;13.27;;;8.07;;
27145;SDS011;17980;51.744;7.190;2023-02-19T09:36:06;8.07;;;6.33;;
27145;SDS011;17980;51.744;7.190;2023-02-19T09:38:43;9.67;;;6.37;;
27145;SDS011;17980;51.744;7.190;2023-02-19T09:41:14;11.17;;;7.03;;
27145;SDS011;17980;51.744;7.190;2023-02-19T09:43:44;12.43;;;7.33;;
27145;SDS011;17980;51.744;7.190;2023-02-19T09:46:22;7.60;;;6.80;;
27145;SDS011;17980;51.744;7.190;2023-02-19T09:48:52;9.47;;;7.00;;
27145;SDS011;17980;51.744;7.190;2023-02-19T09:51:23;9.50;;;5.70;;
27145;SDS011;17980;51.744;7.190;2023-02-19T09:54:01;12.13;;;5.73;;
27145;SDS011;17980;51.744;7.190;2023-02-19T09:56:34;9.63;;;5.80;;
27145;SDS011;17980;51.744;7.190;2023-02-19T09:59:01;9.07;;;6.07;;
27145;SDS011;17980;51.744;7.190;2023-02-19T10:01:31;11.13;;;7.00;;
27145;SDS011;17980;51.744;7.190;2023-02-19T10:04:00;12.67;;;6.03;;
27145;SDS011;17980;51.744;7.190;2023-02-19T10:06:30;11.47;;;6.83;;
27145;SDS011;17980;51.744;7.190;2023-02-19T10:09:14;10.50;;;7.47;;
27145;SDS011;17980;51.744;7.190;2023-02-19T10:11:45;11.33;;;6.97;;
27145;SDS011;17980;51.744;7.190;2023-02-19T10:14:25;10.97;;;8.07;;
27145;SDS011;17980;51.744;7.190;2023-02-19T10:16:54;12.13;;;6.93;;
27145;SDS011;17980;51.744;7.190;2023-02-19T10:19:32;9.87;;;7.17;;
27145;SDS011;17980;51.744;7.190;2023-02-19T10:22:01;4.80;;;2.27;;
27145;SDS011;17980;51.744;7.190;2023-02-19T10:24:38;1.17;;;0.77;;
27145;SDS011;17980;51.744;7.190;2023-02-19T10:27:10;1.70;;;0.57;;
27145;SDS011;17980;51.744;7.190;2023-02-19T10:29:48;0.60;;;0.60;;
27145;SDS011;17980;51.744;7.190;2023-02-19T10:32:18;0.80;;;0.50;;
27145;SDS011;17980;51.744;7.190;2023-02-19T10:34:48;0.50;;;0.50;;
27145;SDS011;17980;51.744;7.190;2023-02-19T10:37:42;3.23;;;0.60;;
27145;SDS011;17980;51.744;7.190;2023-02-19T10:40:13;0.93;;;0.70;;
27145;SDS011;17980;51.744;7.190;2023-02-19T10:42:44;0.60;;;0.60;;
27145;SDS011;17980;51.744;7.190;2023-02-19T10:45:16;0.87;;;0.60;;
27145;SDS011;17980;51.744;7.190;2023-02-19T10:47:54;0.70;;;0.70;;
27145;SDS011;17980;51.744;7.190;2023-02-19T10:50:24;2.90;;;0.83;;
27145;SDS011;17980;51.744;7.190;2023-02-19T10:52:54;1.10;;;1.00;;
27145;SDS011;17980;51.744;7.190;2023-02-19T10:55:25;11.70;;;2.73;;
27145;SDS011;17980;51.744;7.190;2023-02-19T10:58:19;3.27;;;1.10;;
27145;SDS011;17980;51.744;7.190;2023-02-19T11:00:56;1.87;;;1.10;;
27145;SDS011;17980;51.744;7.190;2023-02-19T11:03:39;1.53;;;1.20;;
27145;SDS011;17980;51.744;7.190;2023-02-19T11:06:07;1.63;;;1.00;;
27145;SDS011;17980;51.744;7.190;2023-02-19T11:08:49;0.90;;;0.90;;
27145;SDS011;17980;51.744;7.190;2023-02-19T11:11:23;1.43;;;0.87;;
27145;SDS011;17980;51.744;7.190;2023-02-19T11:13:53;1.17;;;1.10;;
27145;SDS011;17980;51.744;7.190;2023-02-19T11:16:21;0.87;;;0.87;;
27145;SDS011;17980;51.744;7.190;2023-02-19T11:19:04;1.00;;;0.80;;
27145;SDS011;17980;51.744;7.190;2023-02-19T11:21:36;0.80;;;0.80;;
27145;SDS011;17980;51.744;7.190;2023-02-19T11:24:13;2.93;;;1.57;;
27145;SDS011;17980;51.744;7.190;2023-02-19T11:29:23;0.60;;;0.60;;
27145;SDS011;17980;51.744;7.190;2023-02-19T11:31:52;1.57;;;0.90;;
27145;SDS011;17980;51.744;7.190;2023-02-19T11:34:29;0.70;;;0.70;;
27145;SDS011;17980;51.744;7.190;2023-02-19T11:37:08;1.00;;;0.90;;
27145;SDS011;17980;51.744;7.190;2023-02-19T11:39:46;1.63;;;1.10;;
27145;SDS011;17980;51.744;7.190;2023-02-19T11:42:30;1.03;;;0.87;;
27145;SDS011;17980;51.744;7.190;2023-02-19T11:45:13;1.40;;;1.27;;
27145;SDS011;17980;51.744;7.190;2023-02-19T11:51:01;1.63;;;0.70;;
27145;SDS011;17980;51.744;7.190;2023-02-19T11:53:44;0.80;;;0.80;;
27145;SDS011;17980;51.744;7.190;2023-02-19T11:56:17;1.27;;;1.00;;
27145;SDS011;17980;51.744;7.190;2023-02-19T11:58:58;1.30;;;0.93;;
27145;SDS011;17980;51.744;7.190;2023-02-19T12:01:33;2.60;;;1.10;;
27145;SDS011;17980;51.744;7.190;2023-02-19T12:04:11;2.20;;;1.10;;
27145;SDS011;17980;51.744;7.190;2023-02-19T12:06:56;1.40;;;1.30;;
27145;SDS011;17980;51.744;7.190;2023-02-19T12:09:38;3.53;;;2.00;;
27145;SDS011;17980;51.744;7.190;2023-02-19T12:12:17;0.97;;;0.93;;
27145;SDS011;17980;51.744;7.190;2023-02-19T12:14:56;1.40;;;0.93;;
27145;SDS011;17980;51.744;7.190;2023-02-19T12:20:55;1.27;;;1.10;;
27145;SDS011;17980;51.744;7.190;2023-02-19T12:23:33;0.97;;;0.80;;
27145;SDS011;17980;51.744;7.190;2023-02-19T12:26:13;0.90;;;0.90;;
27145;SDS011;17980;51.744;7.190;2023-02-19T12:29:01;0.70;;;0.70;;
27145;SDS011;17980;51.744;7.190;2023-02-19T12:31:38;1.70;;;1.10;;
27145;SDS011;17980;51.744;7.190;2023-02-19T12:34:30;1.43;;;1.33;;
27145;SDS011;17980;51.744;7.190;2023-02-19T12:37:10;1.40;;;1.30;;
27145;SDS011;17980;51.744;7.190;2023-02-19T12:39:51;1.20;;;1.10;;
27145;SDS011;17980;51.744;7.190;2023-02-19T12:42:27;1.03;;;0.70;;
27145;SDS011;17980;51.744;7.190;2023-02-19T12:45:09;0.70;;;0.70;;
27145;SDS011;17980;51.744;7.190;2023-02-19T12:47:38;1.53;;;0.60;;
27145;SDS011;17980;51.744;7.190;2023-02-19T12:50:17;2.00;;;0.60;;
27145;SDS011;17980;51.744;7.190;2023-02-19T12:52:48;0.60;;;0.50;;
27145;SDS011;17980;51.744;7.190;2023-02-19T12:55:20;2.50;;;0.60;;
27145;SDS011;17980;51.744;7.190;2023-02-19T12:57:49;0.67;;;0.60;;
27145;SDS011;17980;51.744;7.190;2023-02-19T13:00:28;1.07;;;0.70;;
27145;SDS011;17980;51.744;7.190;2023-02-19T13:02:59;0.90;;;0.90;;
27145;SDS011;17980;51.744;7.190;2023-02-19T13:05:35;1.27;;;0.87;;
27145;SDS011;17980;51.744;7.190;2023-02-19T13:08:10;1.00;;;0.80;;
27145;SDS011;17980;51.744;7.190;2023-02-19T13:10:50;1.43;;;0.63;;
27145;SDS011;17980;51.744;7.190;2023-02-19T13:13:22;0.90;;;0.60;;
27145;SDS011;17980;51.744;7.190;2023-02-19T13:16:01;0.60;;;0.60;;
27145;SDS011;17980;51.744;7.190;2023-02-19T13:18:35;4.80;;;1.87;;
27145;SDS011;17980;51.744;7.190;2023-02-19T13:21:12;19.90;;;16.20;;
27145;SDS011;17980;51.744;7.190;2023-02-19T13:23:43;2.33;;;2.10;;
27145;SDS011;17980;51.744;7.190;2023-02-19T13:26:28;1.67;;;0.90;;
27145;SDS011;17980;51.744;7.190;2023-02-19T13:31:46;1.07;;;0.70;;
27145;SDS011;17980;51.744;7.190;2023-02-19T13:34:22;1.70;;;1.60;;
27145;SDS011;17980;51.744;7.190;2023-02-19T13:37:00;3.53;;;2.47;;
27145;SDS011;17980;51.744;7.190;2023-02-19T13:39:28;4.67;;;3.00;;
27145;SDS011;17980;51.744;7.190;2023-02-19T13:42:11;1.67;;;1.13;;
27145;SDS011;17980;51.744;7.190;2023-02-19T13:44:37;1.17;;;1.07;;
27145;SDS011;17980;51.744;7.190;2023-02-19T13:50:16;1.90;;;0.80;;
27145;SDS011;17980;51.744;7.190;2023-02-19T13:52:47;3.40;;;1.13;;
27145;SDS011;17980;51.744;7.190;2023-02-19T13:55:42;1.20;;;1.00;;
27145;SDS011;17980;51.744;7.190;2023-02-19T13:58:33;1.87;;;1.77;;
27145;SDS011;17980;51.744;7.190;2023-02-19T14:01:14;1.93;;;1.00;;
27145;SDS011;17980;51.744;7.190;2023-02-19T14:03:53;1.90;;;1.20;;
27145;SDS011;17980;51.744;7.190;2023-02-19T14:06:23;3.60;;;2.40;;
27145;SDS011;17980;51.744;7.190;2023-02-19T14:08:59;2.40;;;2.20;;
27145;SDS011;17980;51.744;7.190;2023-02-19T14:14:37;2.03;;;1.90;;
27145;SDS011;17980;51.744;7.190;2023-02-19T14:17:25;2.00;;;1.60;;
27145;SDS011;17980;51.744;7.190;2023-02-19T14:20:02;2.70;;;1.70;;
27145;SDS011;17980;51.744;7.190;2023-02-19T14:25:53;1.30;;;1.20;;
27145;SDS011;17980;51.744;7.190;2023-02-19T14:31:26;2.00;;;1.80;;
27145;SDS011;17980;51.744;7.190;2023-02-19T14:33:55;1.43;;;1.33;;
27145;SDS011;17980;51.744;7.190;2023-02-19T14:36:36;1.07;;;1.07;;
27145;SDS011;17980;51.744;7.190;2023-02-19T14:39:10;1.40;;;1.30;;
27145;SDS011;17980;51.744;7.190;2023-02-19T14:41:49;1.70;;;1.60;;
27145;SDS011;17980;51.744;7.190;2023-02-19T14:44:19;1.77;;;1.53;;
27145;SDS011;17980;51.744;7.190;2023-02-19T14:46:58;1.50;;;1.40;;
27145;SDS011;17980;51.744;7.190;2023-02-19T14:49:29;2.20;;;1.83;;
27145;SDS011;17980;51.744;7.190;2023-02-19T14:52:00;2.70;;;2.00;;
27145;SDS011;17980;51.744;7.190;2023-02-19T14:54:33;1.90;;;1.80;;
27145;SDS011;17980;51.744;7.190;2023-02-19T14:57:16;2.53;;;2.33;;
27145;SDS011;17980;51.744;7.190;2023-02-19T14:59:52;3.40;;;2.33;;
27145;SDS011;17980;51.744;7.190;2023-02-19T15:02:31;3.37;;;2.70;;
27145;SDS011;17980;51.744;7.190;2023-02-19T15:05:00;2.60;;;2.40;;
27145;SDS011;17980;51.744;7.190;2023-02-19T15:07:37;3.07;;;2.67;;
27145;SDS011;17980;51.744;7.190;2023-02-19T15:10:06;2.90;;;2.60;;
27145;SDS011;17980;51.744;7.190;2023-02-19T15:12:39;3.10;;;2.90;;
27145;SDS011;17980;51.744;7.190;2023-02-19T15:15:17;4.67;;;4.07;;
27145;SDS011;17980;51.744;7.190;2023-02-19T15:17:48;4.47;;;3.30;;
27145;SDS011;17980;51.744;7.190;2023-02-19T15:20:26;3.70;;;2.97;;
27145;SDS011;17980;51.744;7.190;2023-02-19T15:23:10;4.67;;;2.83;;
27145;SDS011;17980;51.744;7.190;2023-02-19T15:25:42;4.33;;;2.77;;
27145;SDS011;17980;51.744;7.190;2023-02-19T15:28:19;5.70;;;3.47;;
27145;SDS011;17980;51.744;7.190;2023-02-19T15:31:02;5.57;;;3.87;;
27145;SDS011;17980;51.744;7.190;2023-02-19T15:33:49;3.67;;;3.37;;
27145;SDS011;17980;51.744;7.190;2023-02-19T15:36:19;5.20;;;4.00;;
27145;SDS011;17980;51.744;7.190;2023-02-19T15:38:59;3.50;;;3.20;;
27145;SDS011;17980;51.744;7.190;2023-02-19T15:41:29;3.40;;;3.10;;
27145;SDS011;17980;51.744;7.190;2023-02-19T15:44:12;6.23;;;5.63;;